Laughlin Air Force Base
KDLF : now visible

Airfield :











YOU CAN JOIN US ON...

 
LOGIN :

Register | Disclaimer

   EN    FR    IT 

 









Legend :    VFR   Marginal VFR   IFR   Intensive IFR   Very Intensive IFR
Visi :
Ceiling :
>= 8 km
>= 3000ft
5 to 8 km
1000 to 3000 ft
1500m to 5 km
500 to 1000 ft
800 to 1500m
200 to 500 ft
< 800m
< 200 ft
Symbols :   Thunderstorms  Fog  Heavy snow  Heavy precipitations  Wind > 20 kt






- Airport Elevation : 1082 ft


KDLF - Laughlin Air Force Base

CURRENT METAR :
  • 200756Z AUTO 13012KT 10SM CLR 24/21 A2992 RMK AO2 SLP119 T02430214 CHINO RWY31 $

EXPIRED METARs :
  • 200656Z AUTO 13009KT 10SM CLR 24/20 A2993 RMK AO2 SLP123 T02440197 CHINO RWY31 $
  • 200556Z AUTO 13010KT 10SM CLR 25/19 A2993 RMK AO2 SLP123 T02520191 10315 20249 403330227 51010 CHINO RWY31 $

TAF AMD TAF KDLF
Valid from the 19 at 23:00 until the 21 at 01:00 UTC


192330Z 1923/2101 14008KT 9999 FEW040 QNH2986INS
BECMG 2009/2010 14012KT 9999 BKN012 QNH2992INS
TEMPO 2013/2015 8000 BR OVC007
BECMG 2015/2016 15012G18KT 9999 BKN015 QNH2991INS
BECMG 2019/2020 16015G25KT 9999 SCT025 QNH2985INS TX32/1923Z TN21/2012Z LAST NO AMDS AFT 2000 NEXT 2011
KZHU FIR / North America



MET'MAP, your aeronautical weather chart ! - Copyright ORBIFLY December 2007 - Disclaimer

ORBIFLY MET'MAP TEAM :

Programming & Development : Alexandra Zaïnal
Concept & original design : Baudouin d'Aumeries
Assistance for programming : Marc-Olivier Méhu
Technical & hardware support : Manuel Goepfert

Contact : metmap@orbifly.com




SOURCES & CREDITS :

   NOAA       Earth
Advisory